Time;durP1;ratioP1;P1;durP2;ratioP2;P2;SDS_P1;SDS_P2;PMS_P1;PMS_P2;Temp;Humidity;BMP_temperature;BMP_pressure;BME280_temperature;BME280_humidity;BME280_pressure;Samples;Min_cycle;Max_cycle;Signal;HPM_P1;HPM_P2
2021/03/28 00:00:50;;;;;;;14.13;2.50;;;8.10;99.90;;;;;;5013414;28;20519;-88
2021/03/28 00:03:29;;;;;;;20.23;2.58;;;8.10;99.90;;;;;;5009308;28;20038;-86
2021/03/28 00:06:19;;;;;;;14.77;2.00;;;8.10;99.90;;;;;;5008713;28;20100;-88
2021/03/28 00:09:11;;;;;;;9.00;1.70;;;8.10;99.90;;;;;;5007642;28;20435;-88
2021/03/28 00:12:19;;;;;;;15.63;2.35;;;8.10;99.90;;;;;;5011413;28;20084;-86
2021/03/28 00:14:49;;;;;;;12.30;1.90;;;8.10;99.90;;;;;;5010481;28;20041;-88
2021/03/28 00:17:30;;;;;;;15.25;2.42;;;8.10;99.90;;;;;;5007715;28;20046;-88
2021/03/28 00:20:15;;;;;;;10.18;1.63;;;8.20;99.90;;;;;;4981367;28;20050;-88
2021/03/28 00:22:47;;;;;;;14.98;1.88;;;8.20;99.90;;;;;;4996273;28;20062;-88
2021/03/28 00:25:42;;;;;;;9.85;1.60;;;8.20;99.90;;;;;;5000837;28;20562;-88
2021/03/28 00:28:32;;;;;;;11.95;1.65;;;8.30;99.90;;;;;;5011767;28;20046;-89
2021/03/28 00:31:28;;;;;;;12.52;2.15;;;8.30;99.90;;;;;;4996508;28;20380;-88
2021/03/28 00:34:04;;;;;;;14.18;2.58;;;8.30;99.90;;;;;;4996395;28;20438;-88
2021/03/28 00:37:11;;;;;;;11.48;1.55;;;8.30;99.90;;;;;;4996804;28;20124;-88
2021/03/28 00:39:56;;;;;;;7.70;2.20;;;8.30;99.90;;;;;;4985801;28;20046;-88
2021/03/28 00:42:39;;;;;;;9.43;1.83;;;8.30;99.90;;;;;;4995694;28;20049;-88
2021/03/28 00:45:37;;;;;;;18.58;2.33;;;8.20;99.90;;;;;;4995582;28;20053;-88
2021/03/28 00:48:04;;;;;;;;;;;8.20;99.90;;;;;;4973011;28;20457;-86
2021/03/28 00:50:40;;;;;;;11.68;2.47;;;8.20;99.90;;;;;;4951937;28;19922;-88
2021/03/28 00:53:10;;;;;;;12.63;2.40;;;8.20;99.90;;;;;;4955827;28;20091;-88
2021/03/28 00:55:54;;;;;;;13.15;1.70;;;8.20;99.90;;;;;;4956438;28;20039;-88
2021/03/28 00:58:29;;;;;;;13.07;1.73;;;8.20;99.90;;;;;;4952516;28;20146;-88
2021/03/28 01:01:20;;;;;;;11.60;1.75;;;8.20;99.90;;;;;;4956807;28;20050;-87
2021/03/28 01:04:00;;;;;;;9.48;1.55;;;8.20;99.90;;;;;;4951406;28;20480;-87
2021/03/28 01:06:47;;;;;;;17.60;2.10;;;8.20;99.90;;;;;;4963546;28;20051;-87
2021/03/28 01:09:38;;;;;;;7.80;1.60;;;8.20;99.90;;;;;;4946425;28;20051;-88
2021/03/28 01:12:41;;;;;;;6.72;1.73;;;8.30;99.90;;;;;;4952002;28;20098;-87
2021/03/28 01:15:56;;;;;;;9.90;2.00;;;8.30;99.90;;;;;;4961705;28;20440;-88
2021/03/28 01:18:32;;;;;;;18.40;2.42;;;8.30;99.90;;;;;;4955494;28;20054;-88
2021/03/28 01:21:27;;;;;;;13.48;2.03;;;8.30;99.90;;;;;;4951516;28;20543;-88
2021/03/28 01:24:14;;;;;;;10.23;1.80;;;8.40;99.90;;;;;;4967400;28;20491;-87
2021/03/28 01:26:59;;;;;;;12.15;2.03;;;8.40;99.90;;;;;;4955601;28;20054;-87
2021/03/28 01:29:30;;;;;;;11.50;2.33;;;8.40;99.90;;;;;;4967395;28;20097;-87
2021/03/28 01:32:08;;;;;;;15.75;2.08;;;8.40;99.90;;;;;;4955205;28;20398;-87
2021/03/28 01:34:54;;;;;;;11.27;1.83;;;8.50;99.90;;;;;;4969602;28;20156;-87
2021/03/28 01:37:32;;;;;;;10.57;1.80;;;8.50;99.90;;;;;;4955631;28;20062;-87
2021/03/28 01:40:11;;;;;;;14.70;2.10;;;8.50;99.90;;;;;;4968505;28;20552;-87
2021/03/28 01:43:10;;;;;;;16.60;2.28;;;8.50;99.90;;;;;;4953684;28;20039;-87
2021/03/28 01:45:36;;;;;;;;;;;8.60;99.90;;;;;;4955483;28;20050;-86
2021/03/28 01:48:09;;;;;;;14.48;2.40;;;8.60;99.90;;;;;;4955404;28;19922;-87
2021/03/28 01:50:44;;;;;;;11.65;2.15;;;8.60;99.90;;;;;;4971393;28;20054;-88
2021/03/28 01:53:31;;;;;;;14.65;2.75;;;8.60;99.90;;;;;;4954709;28;21128;-88
2021/03/28 01:56:07;;;;;;;13.82;2.40;;;8.60;99.90;;;;;;4970798;28;20109;-88
2021/03/28 01:58:59;;;;;;;14.02;2.22;;;8.70;99.90;;;;;;4952915;28;20101;-88
2021/03/28 02:01:42;;;;;;;14.48;2.22;;;8.70;99.90;;;;;;4954860;28;20436;-87
2021/03/28 02:04:30;;;;;;;10.77;1.67;;;8.70;99.90;;;;;;4976839;28;20065;-88
2021/03/28 02:07:14;;;;;;;10.43;1.87;;;8.70;99.90;;;;;;4994554;28;20054;-87
2021/03/28 02:09:51;;;;;;;7.70;1.45;;;8.70;99.90;;;;;;4994263;28;20046;-88
2021/03/28 02:12:30;;;;;;;13.10;1.90;;;8.70;99.90;;;;;;4995211;28;20064;-88
2021/03/28 02:15:11;;;;;;;13.35;1.98;;;8.70;99.90;;;;;;5011048;28;20042;-88
2021/03/28 02:17:44;;;;;;;9.05;2.20;;;8.80;99.90;;;;;;4997324;28;20049;-87
2021/03/28 02:20:39;;;;;;;15.13;2.38;;;8.80;99.90;;;;;;4995502;28;20572;-88
2021/03/28 02:23:17;;;;;;;10.77;1.93;;;8.80;99.90;;;;;;4996658;28;20483;-87
2021/03/28 02:26:07;;;;;;;13.07;1.83;;;8.80;99.90;;;;;;4995780;28;20056;-87
2021/03/28 02:29:15;;;;;;;11.68;1.58;;;8.80;99.90;;;;;;4996886;28;20046;-86
2021/03/28 02:32:11;;;;;;;15.63;2.47;;;8.80;99.90;;;;;;4989612;28;20050;-87
2021/03/28 02:35:00;;;;;;;12.43;2.03;;;8.80;99.90;;;;;;5009299;28;20387;-88
2021/03/28 02:37:55;;;;;;;11.63;2.08;;;8.80;99.90;;;;;;5007082;28;20042;-88
2021/03/28 02:40:33;;;;;;;14.57;2.10;;;8.90;99.90;;;;;;5019191;28;20391;-88
2021/03/28 02:43:22;;;;;;;13.02;2.40;;;8.90;99.90;;;;;;5010972;28;20053;-87
2021/03/28 02:46:02;;;;;;;;;;;8.90;99.90;;;;;;5013713;28;20050;-86
2021/03/28 02:48:48;;;;;;;12.38;2.50;;;8.90;99.90;;;;;;4997630;28;19921;-87
2021/03/28 02:51:39;;;;;;;10.88;1.88;;;8.90;99.90;;;;;;4969988;28;20481;-87
2021/03/28 02:54:14;;;;;;;12.32;1.73;;;8.90;99.90;;;;;;4953773;28;20054;-88
2021/03/28 02:56:59;;;;;;;9.32;2.00;;;8.90;99.90;;;;;;4966501;28;20469;-87
2021/03/28 02:59:56;;;;;;;10.63;2.00;;;8.90;99.90;;;;;;4969906;28;20046;-87
2021/03/28 03:02:34;;;;;;;11.23;1.77;;;9.00;99.90;;;;;;4958930;28;20089;-87
2021/03/28 03:05:16;;;;;;;8.93;2.22;;;9.00;99.90;;;;;;4954605;28;20121;-87
2021/03/28 03:07:55;;;;;;;16.13;2.42;;;9.00;99.90;;;;;;4954168;28;20050;-87
2021/03/28 03:10:55;;;;;;;12.38;1.75;;;9.00;99.90;;;;;;4951198;28;20113;-87
2021/03/28 03:13:48;;;;;;;11.90;1.83;;;9.00;99.90;;;;;;4984168;28;20435;-87
2021/03/28 03:16:23;;;;;;;12.52;1.88;;;9.00;99.90;;;;;;4985124;28;20054;-87
2021/03/28 03:19:35;;;;;;;9.02;1.42;;;9.10;99.90;;;;;;4978631;28;20051;-87
2021/03/28 03:22:40;;;;;;;8.85;1.33;;;9.10;99.90;;;;;;4929745;29;20092;-85
2021/03/28 03:25:30;;;;;;;9.18;1.30;;;9.00;99.90;;;;;;4929733;29;20056;-88
2021/03/28 03:28:05;;;;;;;13.65;2.40;;;9.10;99.90;;;;;;4926502;29;20077;-87
2021/03/28 03:30:53;;;;;;;11.55;1.73;;;9.10;99.90;;;;;;4960465;28;20036;-86
2021/03/28 03:33:58;;;;;;;9.10;1.60;;;9.10;99.90;;;;;;4942308;28;20075;-87
2021/03/28 03:37:02;;;;;;;7.85;1.33;;;9.10;99.90;;;;;;4950958;28;20047;-87
2021/03/28 03:39:59;;;;;;;10.05;1.88;;;9.10;99.90;;;;;;4965298;28;20132;-87
2021/03/28 03:42:54;;;;;;;10.10;1.40;;;9.20;99.90;;;;;;4945127;28;20054;-87
2021/03/28 03:45:42;;;;;;;9.40;1.52;;;9.20;99.90;;;;;;4953995;28;20438;-87
2021/03/28 03:48:19;;;;;;;12.45;2.08;;;9.20;99.90;;;;;;4965482;28;20054;-88
2021/03/28 03:51:24;;;;;;;6.97;1.40;;;9.20;99.90;;;;;;4965874;28;20047;-87
2021/03/28 03:54:02;;;;;;;10.50;2.00;;;9.30;99.90;;;;;;4953827;29;20524;-87
2021/03/28 03:56:46;;;;;;;7.35;1.38;;;9.30;99.90;;;;;;4969684;28;20059;-88
2021/03/28 03:59:45;;;;;;;8.40;1.27;;;9.30;99.90;;;;;;4982891;28;20046;-88
2021/03/28 04:02:32;;;;;;;7.05;1.30;;;9.30;99.90;;;;;;4974060;28;20043;-87
2021/03/28 04:04:58;;;;;;;6.35;1.40;;;9.30;99.90;;;;;;4973827;28;20047;-87
2021/03/28 04:07:46;;;;;;;10.95;1.48;;;9.30;99.90;;;;;;4969428;28;20046;-88
2021/03/28 04:10:56;;;;;;;9.48;1.90;;;9.30;99.90;;;;;;4984518;28;20378;-87
2021/03/28 04:13:42;;;;;;;13.48;1.63;;;9.30;99.90;;;;;;4975953;28;20095;-88
2021/03/28 04:16:36;;;;;;;11.13;1.77;;;9.30;99.90;;;;;;4971011;28;20053;-87
2021/03/28 04:19:22;;;;;;;10.73;1.77;;;9.30;99.90;;;;;;4969734;28;20085;-87
2021/03/28 04:22:07;;;;;;;10.75;2.30;;;9.30;99.90;;;;;;4955799;28;20076;-87
2021/03/28 04:25:06;;;;;;;6.43;1.25;;;9.30;99.90;;;;;;4959537;28;20417;-87
2021/03/28 04:28:14;;;;;;;9.27;1.50;;;9.30;99.90;;;;;;4960087;28;20050;-87
2021/03/28 04:30:49;;;;;;;8.30;1.65;;;9.30;99.90;;;;;;4967758;28;20050;-88
2021/03/28 04:33:40;;;;;;;11.07;2.40;;;9.30;99.90;;;;;;4959493;28;20101;-87
2021/03/28 04:36:31;;;;;;;8.40;1.55;;;9.30;99.90;;;;;;4954963;28;20046;-87
2021/03/28 04:39:21;;;;;;;8.95;1.75;;;9.30;99.90;;;;;;4998837;28;20053;-87
2021/03/28 04:42:12;;;;;;;15.27;2.55;;;9.30;99.90;;;;;;4990963;28;20376;-87
2021/03/28 04:44:48;;;;;;;14.77;1.77;;;9.30;99.90;;;;;;4990321;28;20058;-88
2021/03/28 04:48:01;;;;;;;10.50;2.05;;;9.30;99.90;;;;;;4995636;28;20476;-87
2021/03/28 04:50:59;;;;;;;8.35;1.50;;;9.30;99.90;;;;;;4917043;29;20055;-87
2021/03/28 04:53:59;;;;;;;10.88;1.70;;;9.30;99.90;;;;;;4913379;29;20067;-87
2021/03/28 04:56:35;;;;;;;14.25;2.38;;;9.30;99.90;;;;;;4917080;29;20051;-88
2021/03/28 04:59:11;;;;;;;10.00;1.90;;;9.30;99.90;;;;;;4931727;29;20591;-87
2021/03/28 05:01:52;;;;;;;8.77;1.63;;;9.30;99.90;;;;;;4916652;29;20043;-87
2021/03/28 05:04:42;;;;;;;9.13;1.52;;;9.30;99.90;;;;;;4913611;29;20051;-87
2021/03/28 05:07:37;;;;;;;8.48;1.58;;;9.40;99.90;;;;;;4919227;29;20131;-87
2021/03/28 05:10:39;;;;;;;6.53;1.50;;;9.40;99.90;;;;;;4912838;29;20052;-87
2021/03/28 05:13:29;;;;;;;9.82;1.90;;;9.40;99.90;;;;;;4911335;29;20055;-88
2021/03/28 05:16:28;;;;;;;10.35;1.58;;;9.40;99.90;;;;;;4932854;29;20442;-87
2021/03/28 05:19:22;;;;;;;;;;;9.40;99.90;;;;;;4916006;29;20044;-87
2021/03/28 05:22:15;;;;;;;9.02;1.75;;;9.40;99.90;;;;;;4916603;29;19977;-87
2021/03/28 05:25:14;;;;;;;7.30;1.48;;;9.40;99.90;;;;;;4978452;28;20049;-87
2021/03/28 05:28:05;;;;;;;7.78;1.60;;;9.40;99.90;;;;;;5010276;28;20548;-88
2021/03/28 05:30:50;;;;;;;7.32;1.75;;;9.40;99.90;;;;;;5009142;28;20049;-87
2021/03/28 05:33:22;;;;;;;13.27;2.22;;;9.40;99.90;;;;;;5009339;28;20049;-88
2021/03/28 05:36:13;;;;;;;10.13;1.75;;;9.40;99.90;;;;;;5010176;28;20057;-87
2021/03/28 05:39:24;;;;;;;11.40;1.92;;;9.40;99.90;;;;;;5009057;28;20048;-88
2021/03/28 05:42:09;;;;;;;8.38;1.85;;;9.50;99.90;;;;;;5008793;28;20100;-88
2021/03/28 05:45:02;;;;;;;7.60;1.58;;;9.50;99.90;;;;;;5009739;28;20087;-87
2021/03/28 05:47:40;;;;;;;12.50;1.85;;;9.50;99.90;;;;;;5013570;28;20125;-88
2021/03/28 05:50:46;;;;;;;9.07;1.85;;;9.50;99.90;;;;;;5013415;28;20049;-88
2021/03/28 05:53:30;;;;;;;10.48;1.55;;;9.50;99.90;;;;;;5000767;28;20058;-88
2021/03/28 05:56:09;;;;;;;7.13;1.55;;;9.50;99.90;;;;;;4998733;28;20491;-88
2021/03/28 05:58:54;;;;;;;9.13;2.13;;;9.40;99.90;;;;;;5013183;28;20468;-88
2021/03/28 06:01:34;;;;;;;11.68;1.80;;;9.40;99.90;;;;;;5012764;28;20046;-88
2021/03/28 06:04:26;;;;;;;7.60;1.73;;;9.40;99.90;;;;;;5029770;28;20376;-88
2021/03/28 06:07:11;;;;;;;9.50;1.58;;;9.50;99.90;;;;;;5013013;28;20053;-87
2021/03/28 06:10:16;;;;;;;7.10;1.38;;;9.40;99.90;;;;;;5026581;28;20049;-88
2021/03/28 06:13:07;;;;;;;9.57;1.55;;;9.50;99.90;;;;;;5012775;28;20395;-88
2021/03/28 06:16:12;;;;;;;6.93;1.23;;;9.50;99.90;;;;;;5008329;28;20072;-88
2021/03/28 06:18:57;;;;;;;7.05;1.63;;;9.50;99.90;;;;;;5008035;28;20045;-88
2021/03/28 06:21:52;;;;;;;14.30;1.73;;;9.50;99.90;;;;;;4999908;28;20064;-88
2021/03/28 06:24:40;;;;;;;8.10;1.92;;;9.50;99.90;;;;;;5012773;28;20057;-88
2021/03/28 06:27:25;;;;;;;11.70;2.13;;;9.50;99.90;;;;;;4998402;28;20060;-87
2021/03/28 06:30:09;;;;;;;10.95;1.63;;;9.50;99.90;;;;;;5011649;28;20037;-87
2021/03/28 06:33:14;;;;;;;8.68;1.63;;;9.50;99.90;;;;;;5021134;28;20063;-88
2021/03/28 06:35:40;;;;;;;9.35;1.40;;;9.60;99.90;;;;;;5008558;28;20050;-88
2021/03/28 06:38:34;;;;;;;12.63;2.22;;;9.60;99.90;;;;;;5013486;28;20041;-89
2021/03/28 06:41:29;;;;;;;9.55;1.63;;;9.60;99.90;;;;;;4999902;28;20049;-88
2021/03/28 06:44:19;;;;;;;13.70;2.25;;;9.60;99.90;;;;;;4997223;28;20041;-88
2021/03/28 06:47:04;;;;;;;8.00;1.75;;;9.60;99.90;;;;;;5012275;28;20056;-86
2021/03/28 06:49:54;;;;;;;9.48;1.65;;;9.70;99.90;;;;;;5028115;28;20145;-88
2021/03/28 06:52:48;;;;;;;14.43;1.90;;;9.70;99.90;;;;;;5009367;28;20467;-88
2021/03/28 06:55:34;;;;;;;10.07;1.27;;;9.70;99.90;;;;;;5012412;28;20060;-88
2021/03/28 06:58:09;;;;;;;9.43;2.00;;;9.80;99.90;;;;;;5026992;28;20140;-88
2021/03/28 07:01:01;;;;;;;5.68;1.52;;;9.80;99.90;;;;;;5007475;28;20123;-88
2021/03/28 07:03:49;;;;;;;7.20;1.40;;;9.80;99.90;;;;;;5006665;28;20045;-87
2021/03/28 07:06:40;;;;;;;8.55;1.90;;;9.90;99.90;;;;;;5019264;28;20052;-87
2021/03/28 07:09:20;;;;;;;8.35;1.73;;;9.90;99.90;;;;;;5013724;28;20045;-85
2021/03/28 07:11:56;;;;;;;9.43;1.65;;;10.00;99.90;;;;;;5016077;28;20037;-86
2021/03/28 07:15:04;;;;;;;8.57;1.80;;;10.00;99.90;;;;;;5014480;28;20111;-86
2021/03/28 07:17:57;;;;;;;10.75;2.30;;;10.00;99.90;;;;;;4934580;28;20053;-87
2021/03/28 07:20:51;;;;;;;8.10;1.60;;;10.10;99.90;;;;;;4947378;28;20051;-87
2021/03/28 07:23:42;;;;;;;9.25;2.10;;;10.10;99.90;;;;;;4936682;28;20456;-88
2021/03/28 07:26:32;;;;;;;8.77;1.45;;;10.20;99.90;;;;;;4937675;28;20046;-88
2021/03/28 07:29:35;;;;;;;7.55;1.50;;;10.20;99.90;;;;;;4935414;28;20039;-87
2021/03/28 07:32:24;;;;;;;8.70;1.50;;;10.30;99.90;;;;;;4937320;28;20526;-88
2021/03/28 07:34:57;;;;;;;9.57;1.90;;;10.40;99.90;;;;;;4956560;28;20106;-88
2021/03/28 07:37:38;;;;;;;6.38;1.20;;;10.50;99.90;;;;;;4947695;28;24928;-85
2021/03/28 07:40:27;;;;;;;7.38;1.70;;;10.50;99.90;;;;;;4938821;29;20051;-88
2021/03/28 07:43:05;;;;;;;8.18;1.50;;;10.60;99.90;;;;;;4953571;28;20055;-87
2021/03/28 07:46:13;;;;;;;10.90;1.60;;;10.60;99.90;;;;;;4942176;28;20088;-87
2021/03/28 07:49:12;;;;;;;7.68;1.45;;;10.70;99.90;;;;;;4924009;28;20215;-85
2021/03/28 07:52:06;;;;;;;8.52;1.90;;;10.80;99.90;;;;;;4991131;28;20042;-87
2021/03/28 07:55:10;;;;;;;8.30;1.50;;;11.00;99.90;;;;;;5029563;28;20049;-87
2021/03/28 07:58:15;;;;;;;7.00;1.38;;;11.10;99.90;;;;;;5016658;28;20120;-84
2021/03/28 08:01:17;;;;;;;6.43;1.85;;;11.20;99.90;;;;;;5013777;28;20053;-86
2021/03/28 08:04:19;;;;;;;9.07;2.08;;;11.20;99.90;;;;;;5028922;28;20089;-84
2021/03/28 08:06:58;;;;;;;6.80;1.30;;;11.30;99.90;;;;;;5024155;28;20391;-84
2021/03/28 08:09:33;;;;;;;9.45;1.60;;;11.30;99.90;;;;;;5010768;28;20080;-84
2021/03/28 08:12:19;;;;;;;9.85;1.73;;;11.40;99.90;;;;;;5013312;28;20050;-83
2021/03/28 08:15:22;;;;;;;6.07;1.25;;;11.50;99.90;;;;;;5023837;28;20053;-84
2021/03/28 08:18:07;;;;;;;7.53;1.50;;;11.50;99.90;;;;;;5024001;28;20083;-86
2021/03/28 08:20:47;;;;;;;6.35;1.70;;;11.50;99.90;;;;;;5030748;28;20037;-85
2021/03/28 08:23:52;;;;;;;8.48;1.50;;;11.60;99.90;;;;;;5018863;28;20253;-85
2021/03/28 08:26:45;;;;;;;7.07;1.92;;;11.70;99.90;;;;;;5023334;28;20069;-86
2021/03/28 08:29:22;;;;;;;9.63;1.58;;;11.70;99.90;;;;;;5027410;28;20050;-85
2021/03/28 08:32:13;;;;;;;5.95;1.23;;;11.70;99.90;;;;;;5030203;28;20077;-86
2021/03/28 08:35:00;;;;;;;8.20;1.50;;;11.70;99.90;;;;;;5024609;28;20071;-85
2021/03/28 08:37:36;;;;;;;9.82;1.73;;;11.70;99.90;;;;;;5021365;28;20057;-85
2021/03/28 08:40:27;;;;;;;14.55;1.75;;;11.80;99.90;;;;;;5010940;28;20380;-85
2021/03/28 08:43:34;;;;;;;7.22;1.40;;;11.90;99.90;;;;;;5023719;28;20041;-85
2021/03/28 08:46:38;;;;;;;7.10;1.52;;;12.10;99.90;;;;;;5019179;28;20054;-85
2021/03/28 08:49:22;;;;;;;6.40;1.40;;;12.30;99.90;;;;;;5019855;28;20049;-85
2021/03/28 08:52:11;;;;;;;11.85;2.20;;;12.40;99.90;;;;;;5010310;28;20084;-86
2021/03/28 08:55:16;;;;;;;9.30;1.60;;;12.50;99.90;;;;;;5022227;28;20140;-85
2021/03/28 08:58:04;;;;;;;8.30;1.50;;;12.70;99.90;;;;;;5005866;28;20510;-85
2021/03/28 09:01:03;;;;;;;8.10;1.30;;;12.80;99.90;;;;;;5023000;28;20099;-85
2021/03/28 09:03:51;;;;;;;5.07;1.13;;;12.90;99.90;;;;;;5004994;28;20060;-85
2021/03/28 09:06:35;;;;;;;6.38;1.50;;;13.10;99.90;;;;;;5024806;28;20048;-85
2021/03/28 09:09:17;;;;;;;7.13;1.30;;;13.20;99.90;;;;;;5011678;28;20049;-85
2021/03/28 09:12:13;;;;;;;8.18;1.63;;;13.30;99.90;;;;;;5030905;28;20053;-86
2021/03/28 09:14:55;;;;;;;5.82;1.20;;;13.40;99.90;;;;;;5023998;28;20037;-85
2021/03/28 09:17:53;;;;;;;12.50;1.77;;;13.60;99.90;;;;;;5025950;28;20050;-86
2021/03/28 09:20:39;;;;;;;6.68;1.58;;;13.60;99.90;;;;;;5011045;28;20044;-85
2021/03/28 09:23:21;;;;;;;6.32;1.15;;;13.70;99.90;;;;;;5000474;28;20060;-85
2021/03/28 09:25:55;;;;;;;9.95;1.38;;;13.80;99.90;;;;;;5010882;28;20144;-85
2021/03/28 09:28:59;;;;;;;8.60;1.25;;;13.90;99.90;;;;;;5015347;28;20041;-85
2021/03/28 09:31:42;;;;;;;7.20;1.58;;;14.00;99.90;;;;;;5013941;28;20041;-85
2021/03/28 09:34:39;;;;;;;8.70;1.75;;;14.00;99.90;;;;;;5023541;28;20057;-85
2021/03/28 09:37:23;;;;;;;9.13;1.35;;;14.10;99.90;;;;;;5025476;28;20596;-85
2021/03/28 09:39:58;;;;;;;8.05;1.38;;;14.20;99.90;;;;;;5013556;28;20479;-85
2021/03/28 09:42:37;;;;;;;6.90;1.52;;;14.30;99.90;;;;;;5017432;28;20333;-85
2021/03/28 09:45:31;;;;;;;6.15;1.30;;;14.40;99.90;;;;;;5019152;28;20049;-85
2021/03/28 09:48:45;;;;;;;6.47;1.45;;;14.50;99.90;;;;;;5020324;28;20041;-85
2021/03/28 09:51:46;;;;;;;4.90;1.10;;;14.60;99.90;;;;;;4929707;28;20118;-85
2021/03/28 09:54:27;;;;;;;6.68;1.48;;;14.70;99.90;;;;;;4946754;28;20059;-84
2021/03/28 09:57:32;;;;;;;6.20;1.23;;;14.70;99.90;;;;;;4950819;28;20047;-85
2021/03/28 10:00:43;;;;;;;9.45;1.98;;;14.80;99.90;;;;;;4888347;29;20055;-85
2021/03/28 10:03:30;;;;;;;5.45;1.55;;;14.80;99.90;;;;;;4840327;29;20057;-84
2021/03/28 10:06:04;;;;;;;7.15;1.40;;;14.90;99.90;;;;;;4847456;29;20060;-84
2021/03/28 10:08:41;;;;;;;7.22;1.25;;;15.00;99.90;;;;;;4858998;29;20551;-84
2021/03/28 10:11:38;;;;;;;9.23;1.20;;;15.10;99.90;;;;;;4858577;29;20136;-85
2021/03/28 10:14:43;;;;;;;4.22;1.10;;;15.10;99.90;;;;;;4853483;29;20128;-85
2021/03/28 10:17:13;;;;;;;5.15;1.13;;;15.30;99.90;;;;;;4853638;29;20050;-84
2021/03/28 10:19:45;;;;;;;6.55;1.35;;;15.30;99.90;;;;;;4853667;29;20064;-85
2021/03/28 10:22:41;;;;;;;6.65;1.23;;;15.30;99.90;;;;;;4859525;29;20060;-85
2021/03/28 10:25:16;;;;;;;6.32;1.33;;;15.30;99.90;;;;;;4840451;29;20493;-85
2021/03/28 10:28:05;;;;;;;8.77;1.77;;;15.20;99.90;;;;;;4872474;29;20127;-85
2021/03/28 10:30:55;;;;;;;7.20;1.50;;;15.20;99.90;;;;;;4891620;29;20053;-85
2021/03/28 10:33:45;;;;;;;9.60;2.00;;;15.10;99.90;;;;;;4881789;29;20076;-91
2021/03/28 10:36:14;;;;;;;7.78;1.30;;;15.00;99.90;;;;;;4902296;28;20044;-89
2021/03/28 10:38:42;;;;;;;8.05;1.52;;;14.80;99.90;;;;;;5000262;28;20058;-89
2021/03/28 10:41:29;;;;;;;5.20;0.90;;;14.70;99.90;;;;;;5005939;28;20052;-88
2021/03/28 10:44:28;;;;;;;7.15;1.67;;;14.70;99.90;;;;;;5020256;28;20042;-88
2021/03/28 10:47:05;;;;;;;5.88;1.25;;;14.70;99.90;;;;;;5007147;28;20076;-89
2021/03/28 10:49:53;;;;;;;4.57;1.23;;;14.70;99.90;;;;;;5001854;28;20045;-88
2021/03/28 10:52:45;;;;;;;;;;;14.60;99.90;;;;;;5019252;28;20479;-89
2021/03/28 10:55:52;;;;;;;6.78;1.38;;;14.70;99.90;;;;;;5012659;28;20012;-88
2021/03/28 10:58:49;;;;;;;7.15;1.55;;;14.70;99.90;;;;;;5014387;28;20052;-87
2021/03/28 11:01:53;;;;;;;7.32;2.40;;;14.80;99.90;;;;;;5026101;28;20049;-88
2021/03/28 11:04:45;;;;;;;10.82;4.97;;;14.90;99.90;;;;;;5007287;28;20041;-89
2021/03/28 11:07:23;;;;;;;33.70;19.17;;;15.00;99.90;;;;;;5008151;28;20058;-89
2021/03/28 11:10:05;;;;;;;7.05;2.13;;;15.10;99.90;;;;;;5021384;28;20068;-89
2021/03/28 11:12:38;;;;;;;4.38;1.67;;;15.20;99.90;;;;;;5020650;28;20050;-90
2021/03/28 11:15:41;;;;;;;9.77;1.50;;;15.30;99.90;;;;;;5015512;28;20045;-91
2021/03/28 11:18:25;;;;;;;8.35;1.25;;;15.40;99.90;;;;;;5003222;28;20572;-90
2021/03/28 11:21:03;;;;;;;4.53;1.40;;;15.50;99.90;;;;;;5019168;28;20067;-90
2021/03/28 11:23:47;;;;;;;7.10;1.35;;;15.50;99.90;;;;;;5011518;28;20038;-89
2021/03/28 11:26:48;;;;;;;55.90;31.52;;;15.60;99.90;;;;;;5002125;28;20483;-90
2021/03/28 11:29:34;;;;;;;28.35;10.32;;;15.60;99.90;;;;;;4998513;28;20501;-90
2021/03/28 11:32:33;;;;;;;12.63;5.68;;;15.70;99.90;;;;;;5002838;28;20041;-90
2021/03/28 11:35:09;;;;;;;81.75;43.45;;;15.80;99.90;;;;;;4997980;28;20490;-90
2021/03/28 11:37:42;;;;;;;26.23;16.67;;;15.90;99.90;;;;;;5007616;28;20104;-90
2021/03/28 11:40:18;;;;;;;19.05;10.15;;;15.90;99.90;;;;;;5006475;28;20041;-90
2021/03/28 11:43:01;;;;;;;13.32;6.80;;;16.00;99.90;;;;;;5021284;28;20089;-90
2021/03/28 11:45:28;;;;;;;20.75;13.48;;;16.00;99.90;;;;;;5014529;28;20045;-90
2021/03/28 11:49:11;;;;;;;11.68;5.60;;;15.90;99.90;;;;;;5014274;28;20045;-90
2021/03/28 11:51:40;;;;;;;22.30;11.55;;;15.90;99.90;;;;;;4948841;28;20119;-90
2021/03/28 11:54:09;;;;;;;11.75;7.28;;;15.80;99.90;;;;;;4954771;28;20146;-90
2021/03/28 11:56:54;;;;;;;9.23;3.90;;;15.80;99.90;;;;;;4953965;28;20383;-89
2021/03/28 11:59:23;;;;;;;6.30;1.40;;;15.80;99.90;;;;;;4945384;28;20043;-89
2021/03/28 12:01:56;;;;;;;3.85;1.38;;;15.80;99.90;;;;;;4961224;28;20125;-90
2021/03/28 12:04:32;;;;;;;7.50;1.40;;;15.70;99.90;;;;;;4957313;28;20625;-87
2021/03/28 12:07:17;;;;;;;9.80;3.63;;;15.60;99.90;;;;;;4966888;28;20126;-87
2021/03/28 12:09:59;;;;;;;8.88;2.05;;;15.60;99.90;;;;;;4964722;28;20408;-87
2021/03/28 12:12:29;;;;;;;7.00;1.42;;;15.70;99.90;;;;;;4966935;28;20051;-87
2021/03/28 12:14:56;;;;;;;6.30;1.65;;;15.80;99.90;;;;;;4962012;28;20143;-86
2021/03/28 12:17:27;;;;;;;12.13;5.75;;;15.70;99.90;;;;;;4964558;28;20058;-86
2021/03/28 12:20:11;;;;;;;11.88;3.58;;;15.80;99.90;;;;;;4946021;28;20047;-86
2021/03/28 12:22:37;;;;;;;11.52;6.43;;;15.80;99.90;;;;;;4959437;28;20478;-86
2021/03/28 12:25:24;;;;;;;10.02;4.03;;;15.70;99.90;;;;;;4980802;28;20073;-87
2021/03/28 12:27:56;;;;;;;12.48;7.57;;;15.80;99.90;;;;;;4998143;28;20050;-87
2021/03/28 12:30:29;;;;;;;7.45;2.33;;;15.80;99.90;;;;;;5002488;28;20050;-86
2021/03/28 12:33:05;;;;;;;6.00;1.65;;;15.90;99.90;;;;;;4996215;28;20108;-90
2021/03/28 12:35:47;;;;;;;6.53;1.33;;;15.90;99.90;;;;;;4999104;28;20103;-89
2021/03/28 12:38:26;;;;;;;8.02;1.10;;;16.00;99.90;;;;;;5000161;28;20500;-91
2021/03/28 12:41:11;;;;;;;;;;;16.00;99.90;;;;;;5004070;28;20050;-91
2021/03/28 12:43:54;;;;;;;9.02;1.42;;;15.90;99.90;;;;;;5011581;28;19925;-91
2021/03/28 12:46:29;;;;;;;7.80;1.17;;;15.80;99.90;;;;;;4996208;28;20058;-91
2021/03/28 12:49:08;;;;;;;4.05;1.02;;;15.80;99.90;;;;;;5010408;28;20073;-90
2021/03/28 12:51:47;;;;;;;5.20;1.42;;;15.90;99.90;;;;;;5012045;28;20037;-91
2021/03/28 12:54:23;;;;;;;7.30;1.45;;;15.90;99.90;;;;;;4980285;28;20121;-91
2021/03/28 12:56:57;;;;;;;4.75;1.40;;;15.90;99.90;;;;;;4988986;28;20053;-91
2021/03/28 12:59:45;;;;;;;3.72;1.30;;;16.00;99.90;;;;;;4999039;28;20080;-91
2021/03/28 13:02:20;;;;;;;11.27;1.73;;;15.90;99.90;;;;;;4984309;28;20045;-91
2021/03/28 13:04:59;;;;;;;7.32;1.38;;;15.90;99.90;;;;;;4976817;28;20066;-91
2021/03/28 13:07:45;;;;;;;7.18;1.40;;;16.00;99.90;;;;;;5000375;28;20046;-90
2021/03/28 13:10:14;;;;;;;6.30;1.30;;;16.00;99.90;;;;;;4991024;28;20050;-90
2021/03/28 13:12:43;;;;;;;8.55;1.38;;;15.90;99.90;;;;;;4997250;28;20057;-90
2021/03/28 13:15:13;;;;;;;8.60;1.38;;;15.90;99.90;;;;;;5000646;28;20045;-91
2021/03/28 13:17:41;;;;;;;6.80;1.30;;;15.90;99.90;;;;;;4999287;28;20061;-90
2021/03/28 13:20:34;;;;;;;6.63;1.65;;;15.80;99.90;;;;;;5000742;28;20054;-91
2021/03/28 13:23:25;;;;;;;4.32;1.10;;;15.80;99.90;;;;;;5001905;28;20074;-90
2021/03/28 13:26:07;;;;;;;8.07;1.40;;;15.70;99.90;;;;;;4996000;28;20050;-90
2021/03/28 13:28:35;;;;;;;6.32;1.38;;;15.70;99.90;;;;;;4988478;28;20073;-90
2021/03/28 13:31:23;;;;;;;6.35;1.45;;;15.80;99.90;;;;;;5010068;28;20102;-90
2021/03/28 13:33:55;;;;;;;7.00;1.42;;;15.80;99.90;;;;;;4998808;28;20072;-90
2021/03/28 13:36:24;;;;;;;4.95;1.27;;;15.80;99.90;;;;;;5000220;28;20046;-90
2021/03/28 13:39:00;;;;;;;6.38;1.40;;;15.80;99.90;;;;;;5004512;28;20050;-90
2021/03/28 13:41:33;;;;;;;4.63;1.38;;;15.80;99.90;;;;;;4997526;28;20141;-91
2021/03/28 13:44:18;;;;;;;6.90;1.50;;;15.80;99.90;;;;;;5004154;28;20046;-91
2021/03/28 13:46:55;;;;;;;9.02;1.65;;;15.90;99.90;;;;;;4996063;28;20121;-90
2021/03/28 13:49:38;;;;;;;4.90;1.40;;;15.90;99.90;;;;;;5005819;28;20046;-90
2021/03/28 13:52:17;;;;;;;7.07;1.80;;;15.90;99.90;;;;;;5004748;28;20046;-91
2021/03/28 13:55:00;;;;;;;5.30;1.30;;;15.90;99.90;;;;;;5003290;28;20065;-91
2021/03/28 13:57:32;;;;;;;8.57;1.30;;;15.90;99.90;;;;;;4995907;28;20045;-91
2021/03/28 14:00:21;;;;;;;7.70;1.67;;;15.90;99.90;;;;;;4996584;28;20078;-90
2021/03/28 14:02:51;;;;;;;5.18;1.20;;;15.90;99.90;;;;;;5018162;28;20121;-91
2021/03/28 14:05:21;;;;;;;7.13;1.30;;;15.90;99.90;;;;;;4998312;28;20116;-89
2021/03/28 14:07:54;;;;;;;6.95;1.40;;;15.90;99.90;;;;;;4996263;28;20042;-91
2021/03/28 14:10:33;;;;;;;11.68;1.40;;;15.80;99.90;;;;;;4995323;28;20499;-83
2021/03/28 14:13:26;;;;;;;7.13;1.20;;;15.90;99.90;;;;;;5007824;28;20045;-83
2021/03/28 14:16:02;;;;;;;6.68;1.23;;;16.00;99.90;;;;;;5021784;28;20801;-85
2021/03/28 14:18:36;;;;;;;7.28;1.75;;;16.00;99.90;;;;;;5014912;28;20045;-87
2021/03/28 14:21:23;;;;;;;5.38;1.38;;;15.90;99.90;;;;;;5022956;28;20060;-86
2021/03/28 14:24:14;;;;;;;5.00;1.20;;;15.90;99.90;;;;;;5006838;28;20045;-87
2021/03/28 14:26:46;;;;;;;14.80;1.65;;;15.90;99.90;;;;;;4996433;28;20477;-88
2021/03/28 14:29:33;;;;;;;7.30;1.33;;;16.00;99.90;;;;;;5007402;28;20056;-88